Time;durP1;ratioP1;P1;durP2;ratioP2;P2;SDS_P1;SDS_P2;PMS_P1;PMS_P2;Temp;Humidity;BMP_temperature;BMP_pressure;BME280_temperature;BME280_humidity;BME280_pressure;Samples;Min_cycle;Max_cycle;Signal;HPM_P1;HPM_P2
2021/05/16 00:01:19;;;;;;;82.95;30.73;;;15.00;63.40;;;;;;5040996;28;20041;-63
2021/05/16 00:03:52;;;;;;;73.22;29.92;;;15.00;63.40;;;;;;5049778;28;20032;-63
2021/05/16 00:06:17;;;;;;;71.47;29.45;;;15.00;63.40;;;;;;5036238;28;20064;-64
2021/05/16 00:08:47;;;;;;;65.18;26.20;;;15.10;63.40;;;;;;5039032;28;20039;-63
2021/05/16 00:11:17;;;;;;;62.05;27.10;;;15.10;63.40;;;;;;5041606;28;20029;-63
2021/05/16 00:13:43;;;;;;;64.45;25.83;;;15.10;63.40;;;;;;5044285;28;20135;-64
2021/05/16 00:16:11;;;;;;;57.58;24.92;;;15.10;63.40;;;;;;5044597;28;20095;-63
2021/05/16 00:18:36;;;;;;;58.20;26.60;;;15.10;63.50;;;;;;5037150;28;20048;-64
2021/05/16 00:21:03;;;;;;;54.67;25.58;;;15.10;63.40;;;;;;5034783;28;22049;-63
2021/05/16 00:23:28;;;;;;;58.30;25.85;;;15.10;63.50;;;;;;5034341;28;20086;-64
2021/05/16 00:25:56;;;;;;;67.47;27.35;;;15.10;63.40;;;;;;5042155;28;20405;-63
2021/05/16 00:28:26;;;;;;;68.25;27.40;;;15.10;63.30;;;;;;5038769;28;20075;-63
2021/05/16 00:30:55;;;;;;;57.88;25.30;;;15.20;63.40;;;;;;5037525;28;20036;-63
2021/05/16 00:33:21;;;;;;;55.38;24.05;;;15.20;63.50;;;;;;5037972;28;20043;-63
2021/05/16 00:35:51;;;;;;;51.35;22.98;;;15.20;63.50;;;;;;5043626;28;20865;-63
2021/05/16 00:38:19;;;;;;;63.10;25.83;;;15.20;63.50;;;;;;5031238;28;20517;-64
2021/05/16 00:40:45;;;;;;;58.30;23.75;;;15.20;63.50;;;;;;5035646;28;20331;-63
2021/05/16 00:43:12;;;;;;;53.80;23.88;;;15.20;63.50;;;;;;5045824;28;20458;-63
2021/05/16 00:45:39;;;;;;;48.60;21.77;;;15.20;63.40;;;;;;5040715;28;20529;-63
2021/05/16 00:48:08;;;;;;;41.03;19.48;;;15.20;63.40;;;;;;5043733;28;20068;-63
2021/05/16 00:50:40;;;;;;;38.78;19.17;;;15.30;63.50;;;;;;5039961;28;20040;-63
2021/05/16 00:53:06;;;;;;;38.67;19.63;;;15.30;63.40;;;;;;5045133;28;20037;-64
2021/05/16 00:55:32;;;;;;;31.05;16.23;;;15.30;63.50;;;;;;5049906;28;20048;-63
2021/05/16 00:57:58;;;;;;;29.63;16.50;;;15.30;63.60;;;;;;5041627;28;20091;-64
2021/05/16 01:00:30;;;;;;;27.50;14.80;;;15.30;63.50;;;;;;5045641;28;21213;-64
2021/05/16 01:02:56;;;;;;;25.77;14.65;;;15.30;63.40;;;;;;5044425;28;20051;-64
2021/05/16 01:05:22;;;;;;;23.80;13.18;;;15.30;63.40;;;;;;5046771;28;20068;-64
2021/05/16 01:07:49;;;;;;;21.88;12.82;;;15.30;63.30;;;;;;5035701;28;20047;-64
2021/05/16 01:10:15;;;;;;;22.52;11.82;;;15.30;63.40;;;;;;5031716;28;20039;-63
2021/05/16 01:12:45;;;;;;;18.13;11.18;;;15.30;63.30;;;;;;5037635;28;20647;-64
2021/05/16 01:15:18;;;;;;;18.90;12.05;;;15.30;63.30;;;;;;5046744;28;20506;-64
2021/05/16 01:17:46;;;;;;;17.92;10.10;;;15.30;63.30;;;;;;5044632;28;20044;-64
2021/05/16 01:20:16;;;;;;;15.80;9.60;;;15.30;63.30;;;;;;5046139;28;20064;-64
2021/05/16 01:22:41;;;;;;;14.82;9.00;;;15.30;63.20;;;;;;5038153;28;20539;-64
2021/05/16 01:25:08;;;;;;;11.55;8.75;;;15.30;63.10;;;;;;5037748;28;20043;-64
2021/05/16 01:27:35;;;;;;;13.88;9.18;;;15.30;63.30;;;;;;5037839;28;20045;-64
2021/05/16 01:30:05;;;;;;;11.20;7.97;;;15.30;63.20;;;;;;5039993;28;20514;-64
2021/05/16 01:32:30;;;;;;;18.27;8.32;;;15.20;63.20;;;;;;5049202;28;20029;-64
2021/05/16 01:35:01;;;;;;;13.57;7.53;;;15.20;63.20;;;;;;5034435;28;20056;-64
2021/05/16 01:37:29;;;;;;;12.20;7.78;;;15.20;63.30;;;;;;5038019;28;20035;-64
2021/05/16 01:39:57;;;;;;;11.15;8.15;;;15.20;63.20;;;;;;5033054;28;20033;-64
2021/05/16 01:42:24;;;;;;;14.88;8.32;;;15.20;63.20;;;;;;5046583;28;20150;-64
2021/05/16 01:44:53;;;;;;;11.90;8.48;;;15.20;63.20;;;;;;5045977;28;20037;-64
2021/05/16 01:47:19;;;;;;;14.30;8.43;;;15.20;63.10;;;;;;5040459;28;20487;-64
2021/05/16 01:49:51;;;;;;;14.27;8.25;;;15.10;63.10;;;;;;5043383;28;20052;-64
2021/05/16 01:52:17;;;;;;;14.75;8.60;;;15.20;63.10;;;;;;5046220;28;20036;-64
2021/05/16 01:54:42;;;;;;;11.30;8.48;;;15.20;63.10;;;;;;5040060;28;20037;-64
2021/05/16 01:57:11;;;;;;;12.38;8.50;;;15.20;63.00;;;;;;5038183;28;20056;-64
2021/05/16 01:59:38;;;;;;;15.45;8.65;;;15.20;63.00;;;;;;5042007;28;20036;-64
2021/05/16 02:02:05;;;;;;;13.60;8.40;;;15.20;63.00;;;;;;5039443;28;20065;-65
2021/05/16 02:04:33;;;;;;;14.20;9.20;;;15.10;62.90;;;;;;5044056;28;20126;-65
2021/05/16 02:07:04;;;;;;;12.90;8.23;;;15.10;63.00;;;;;;5045062;28;20082;-64
2021/05/16 02:09:29;;;;;;;14.32;8.68;;;15.10;63.00;;;;;;5037942;28;20048;-64
2021/05/16 02:11:55;;;;;;;13.60;8.30;;;15.10;63.10;;;;;;5046335;28;20033;-64
2021/05/16 02:14:29;;;;;;;15.43;8.68;;;15.10;63.10;;;;;;5038809;28;20044;-64
2021/05/16 02:16:59;;;;;;;12.68;8.88;;;15.00;63.00;;;;;;5042335;28;20029;-64
2021/05/16 02:19:28;;;;;;;11.75;8.77;;;15.00;63.00;;;;;;5035199;28;20068;-64
2021/05/16 02:21:58;;;;;;;14.65;9.63;;;15.00;63.00;;;;;;5043412;28;20414;-64
2021/05/16 02:24:28;;;;;;;14.93;8.95;;;15.00;63.10;;;;;;5037037;28;20072;-64
2021/05/16 02:27:00;;;;;;;13.95;9.25;;;15.00;63.20;;;;;;5050810;28;20127;-64
2021/05/16 02:29:29;;;;;;;14.75;9.55;;;15.00;63.30;;;;;;5037533;28;20044;-64
2021/05/16 02:31:58;;;;;;;14.57;9.50;;;15.00;63.20;;;;;;5035184;28;20563;-64
2021/05/16 02:34:24;;;;;;;16.42;9.60;;;15.00;63.30;;;;;;5045751;28;20417;-64
2021/05/16 02:36:50;;;;;;;16.73;9.75;;;15.00;63.20;;;;;;5035131;28;20044;-64
2021/05/16 02:39:16;;;;;;;14.88;10.00;;;15.00;63.30;;;;;;5035984;28;20036;-64
2021/05/16 02:41:41;;;;;;;17.58;10.18;;;15.00;63.40;;;;;;5029681;28;20056;-64
2021/05/16 02:44:07;;;;;;;15.23;10.65;;;14.90;63.20;;;;;;5036231;28;20063;-64
2021/05/16 02:46:33;;;;;;;20.45;10.02;;;14.90;63.20;;;;;;5045875;28;20129;-64
2021/05/16 02:49:01;;;;;;;17.75;10.88;;;14.90;63.20;;;;;;5031190;28;20561;-64
2021/05/16 02:51:26;;;;;;;18.45;10.20;;;14.90;63.00;;;;;;5038694;28;20245;-64
2021/05/16 02:53:52;;;;;;;17.45;10.75;;;14.80;62.90;;;;;;5041772;28;20070;-64
2021/05/16 02:56:18;;;;;;;18.08;10.68;;;14.80;62.80;;;;;;5045246;28;20155;-64
2021/05/16 02:58:44;;;;;;;21.33;11.25;;;14.80;62.80;;;;;;5046383;28;20080;-64
2021/05/16 03:01:12;;;;;;;22.10;11.57;;;14.70;62.70;;;;;;5046561;28;20047;-64
2021/05/16 03:03:39;;;;;;;21.35;11.77;;;14.60;62.70;;;;;;5037459;28;20068;-64
2021/05/16 03:06:09;;;;;;;18.42;10.65;;;14.60;62.70;;;;;;5037852;28;20090;-64
2021/05/16 03:08:35;;;;;;;22.55;11.68;;;14.50;62.70;;;;;;5036531;28;20055;-64
2021/05/16 03:11:01;;;;;;;22.85;12.15;;;14.50;62.80;;;;;;5037667;28;20041;-64
2021/05/16 03:13:27;;;;;;;21.83;11.77;;;14.40;62.90;;;;;;5043482;28;20494;-64
2021/05/16 03:15:52;;;;;;;22.35;11.15;;;14.40;63.00;;;;;;5038218;28;20047;-64
2021/05/16 03:18:18;;;;;;;20.77;10.50;;;14.30;63.00;;;;;;5043751;28;20603;-64
2021/05/16 03:20:46;;;;;;;20.55;11.15;;;14.30;63.10;;;;;;5039458;28;20619;-64
2021/05/16 03:23:11;;;;;;;18.60;11.20;;;14.30;63.20;;;;;;5050221;28;20760;-64
2021/05/16 03:25:37;;;;;;;18.55;10.90;;;14.30;63.30;;;;;;5038168;28;20067;-64
2021/05/16 03:28:08;;;;;;;20.75;11.23;;;14.30;63.40;;;;;;5037359;28;20358;-64
2021/05/16 03:30:36;;;;;;;25.65;15.05;;;14.30;63.30;;;;;;5035607;28;20529;-64
2021/05/16 03:33:02;;;;;;;23.00;11.60;;;14.20;63.40;;;;;;5035622;28;20808;-64
2021/05/16 03:35:28;;;;;;;16.08;9.98;;;14.20;63.30;;;;;;5043978;28;20036;-64
2021/05/16 03:37:53;;;;;;;14.45;9.30;;;14.20;63.30;;;;;;5048377;28;20403;-64
2021/05/16 03:40:21;;;;;;;20.05;10.93;;;14.20;63.40;;;;;;5039118;28;20037;-64
2021/05/16 03:42:49;;;;;;;29.27;14.90;;;14.20;63.50;;;;;;5046699;28;20040;-64
2021/05/16 03:45:15;;;;;;;28.60;14.68;;;14.20;63.70;;;;;;5049355;28;20098;-64
2021/05/16 03:47:41;;;;;;;29.15;16.02;;;14.20;63.90;;;;;;5052411;28;20665;-64
2021/05/16 03:50:08;;;;;;;26.92;15.35;;;14.20;64.10;;;;;;5049531;28;20032;-65
2021/05/16 03:52:35;;;;;;;27.73;15.35;;;14.30;64.20;;;;;;5056905;28;20032;-64
2021/05/16 03:55:03;;;;;;;28.38;15.20;;;14.30;64.20;;;;;;5048666;28;20075;-65
2021/05/16 03:57:29;;;;;;;25.67;14.68;;;14.40;64.30;;;;;;5049854;28;20044;-64
2021/05/16 03:59:54;;;;;;;30.95;16.23;;;14.40;64.30;;;;;;5049532;28;20091;-63
2021/05/16 04:02:25;;;;;;;34.50;16.55;;;14.50;64.30;;;;;;5054453;28;20503;-64
2021/05/16 04:04:51;;;;;;;36.25;17.23;;;14.50;64.30;;;;;;5050253;28;20178;-64
2021/05/16 04:07:16;;;;;;;33.42;17.67;;;14.50;64.30;;;;;;5051623;28;20028;-64
2021/05/16 04:09:42;;;;;;;43.30;18.40;;;14.60;64.40;;;;;;5042897;28;20099;-65
2021/05/16 04:12:07;;;;;;;37.45;19.05;;;14.70;64.40;;;;;;5054021;28;20454;-64
2021/05/16 04:14:33;;;;;;;39.00;19.27;;;14.70;64.40;;;;;;5048183;28;20481;-64
2021/05/16 04:16:59;;;;;;;43.05;19.55;;;14.80;64.40;;;;;;5050644;28;20029;-64
2021/05/16 04:19:24;;;;;;;37.17;19.40;;;14.80;64.40;;;;;;5046834;28;20686;-64
2021/05/16 04:21:53;;;;;;;40.70;20.55;;;14.90;64.50;;;;;;5042954;28;20109;-65
2021/05/16 04:24:21;;;;;;;42.42;20.45;;;14.90;64.40;;;;;;5050691;28;20507;-65
2021/05/16 04:26:46;;;;;;;43.13;20.30;;;14.90;64.40;;;;;;5050415;28;20123;-64
2021/05/16 04:29:12;;;;;;;40.47;19.67;;;15.00;64.50;;;;;;5042362;28;20115;-65
2021/05/16 04:31:39;;;;;;;41.15;20.98;;;15.00;64.50;;;;;;5048066;28;20037;-64
2021/05/16 04:34:09;;;;;;;41.15;20.13;;;15.10;64.40;;;;;;5049783;28;20075;-64
2021/05/16 04:36:37;;;;;;;36.20;19.90;;;15.10;64.30;;;;;;5054257;28;20062;-64
2021/05/16 04:39:03;;;;;;;36.35;20.17;;;15.20;64.30;;;;;;5051608;28;20138;-64
2021/05/16 04:41:29;;;;;;;38.13;20.27;;;15.20;64.20;;;;;;5049340;28;20032;-64
2021/05/16 04:43:54;;;;;;;37.17;20.80;;;15.20;64.20;;;;;;5052377;28;20063;-64
2021/05/16 04:46:20;;;;;;;41.67;21.20;;;15.20;64.30;;;;;;5051402;28;20071;-64
2021/05/16 04:48:47;;;;;;;42.90;22.35;;;15.30;64.40;;;;;;5048421;28;20035;-64
2021/05/16 04:51:13;;;;;;;42.45;21.27;;;15.30;64.20;;;;;;5047700;28;20043;-64
2021/05/16 04:53:38;;;;;;;35.72;20.70;;;15.30;64.20;;;;;;5050316;28;20036;-64
2021/05/16 04:56:04;;;;;;;39.42;21.73;;;15.30;64.30;;;;;;5051634;28;20199;-64
2021/05/16 04:58:30;;;;;;;45.80;23.38;;;15.30;64.40;;;;;;5057164;28;20036;-64
2021/05/16 05:00:56;;;;;;;44.20;23.15;;;15.30;64.40;;;;;;5041643;28;20044;-64
2021/05/16 05:03:23;;;;;;;40.75;22.58;;;15.30;64.40;;;;;;5055808;28;20131;-64
2021/05/16 05:05:56;;;;;;;40.25;21.98;;;15.40;64.50;;;;;;5051231;28;20037;-64
2021/05/16 05:08:22;;;;;;;39.95;23.08;;;15.50;64.50;;;;;;5044907;28;20115;-64
2021/05/16 05:10:51;;;;;;;39.35;22.08;;;15.50;64.40;;;;;;5045699;28;20036;-64
2021/05/16 05:13:16;;;;;;;41.13;23.17;;;15.50;64.40;;;;;;5049784;28;20053;-64
2021/05/16 05:15:42;;;;;;;39.40;23.75;;;15.60;64.40;;;;;;5048557;28;20142;-64
2021/05/16 05:18:07;;;;;;;41.67;23.13;;;15.60;64.20;;;;;;5041517;28;20048;-64
2021/05/16 05:20:34;;;;;;;44.72;23.73;;;15.60;64.10;;;;;;5047455;28;20055;-64
2021/05/16 05:23:00;;;;;;;44.03;24.48;;;15.60;64.20;;;;;;5045452;28;20059;-64
2021/05/16 05:25:34;;;;;;;44.05;23.50;;;15.60;64.10;;;;;;5047453;28;20147;-64
2021/05/16 05:27:59;;;;;;;42.55;22.85;;;15.60;64.10;;;;;;5048235;28;20083;-64
2021/05/16 05:30:25;;;;;;;46.22;23.92;;;15.60;64.00;;;;;;5043503;28;20076;-64
2021/05/16 05:32:52;;;;;;;46.00;24.05;;;15.60;64.20;;;;;;5052021;28;20038;-64
2021/05/16 05:35:22;;;;;;;44.92;25.50;;;15.60;64.20;;;;;;5046407;28;20794;-64
2021/05/16 05:37:51;;;;;;;48.63;25.60;;;15.60;64.30;;;;;;5045390;28;20046;-64
2021/05/16 05:40:17;;;;;;;47.45;25.55;;;15.70;64.20;;;;;;5041095;28;20195;-64
2021/05/16 05:42:43;;;;;;;43.90;25.17;;;15.80;64.10;;;;;;5045467;28;20746;-64
2021/05/16 05:45:10;;;;;;;48.78;26.88;;;15.70;64.10;;;;;;5044326;28;20101;-64
2021/05/16 05:47:36;;;;;;;57.25;27.73;;;15.80;64.10;;;;;;5046254;28;20041;-65
2021/05/16 05:50:04;;;;;;;48.70;26.35;;;15.80;64.00;;;;;;5040787;28;20383;-64
2021/05/16 05:52:29;;;;;;;52.28;26.00;;;15.80;64.10;;;;;;5034900;28;20041;-64
2021/05/16 05:54:57;;;;;;;56.50;27.75;;;15.80;64.20;;;;;;5037504;28;20047;-63
2021/05/16 05:57:22;;;;;;;52.70;27.98;;;15.80;64.10;;;;;;5045757;28;20089;-64
2021/05/16 05:59:53;;;;;;;58.22;28.75;;;15.80;64.00;;;;;;5046639;28;20040;-64
2021/05/16 06:02:18;;;;;;;54.88;28.90;;;15.80;64.10;;;;;;5045904;28;20127;-64
2021/05/16 06:04:46;;;;;;;48.75;28.30;;;15.80;64.20;;;;;;5034573;28;20513;-64
2021/05/16 06:07:14;;;;;;;54.60;27.85;;;15.90;64.20;;;;;;5040196;28;20036;-64
2021/05/16 06:09:44;;;;;;;49.22;26.58;;;16.00;64.30;;;;;;5037490;28;20056;-64
2021/05/16 06:12:10;;;;;;;46.08;26.95;;;16.00;64.00;;;;;;5048005;28;20138;-64
2021/05/16 06:14:40;;;;;;;53.95;27.80;;;16.00;64.00;;;;;;5045512;28;20173;-64
2021/05/16 06:17:09;;;;;;;49.58;27.02;;;16.00;64.00;;;;;;5041848;28;20075;-64
2021/05/16 06:19:36;;;;;;;48.20;26.80;;;16.10;64.00;;;;;;5040076;28;20025;-64
2021/05/16 06:22:02;;;;;;;49.72;26.23;;;16.10;63.90;;;;;;5047998;28;20102;-63
2021/05/16 06:24:30;;;;;;;49.97;27.38;;;16.20;63.80;;;;;;5044495;28;20112;-64
2021/05/16 06:26:58;;;;;;;54.90;27.27;;;16.10;63.80;;;;;;5039247;28;20043;-64
2021/05/16 06:29:26;;;;;;;48.65;25.67;;;16.20;63.60;;;;;;5037522;28;20079;-64
2021/05/16 06:31:51;;;;;;;44.25;25.63;;;16.20;63.50;;;;;;5038640;28;20586;-64
2021/05/16 06:34:17;;;;;;;48.25;26.27;;;16.20;63.50;;;;;;5051837;28;20041;-64
2021/05/16 06:36:45;;;;;;;44.38;25.63;;;16.20;63.40;;;;;;5046464;28;20498;-64
2021/05/16 06:39:10;;;;;;;41.83;23.85;;;16.20;63.30;;;;;;5047463;28;20086;-64
2021/05/16 06:41:36;;;;;;;47.65;24.88;;;16.20;63.20;;;;;;5044343;28;20037;-64
2021/05/16 06:44:02;;;;;;;46.58;25.30;;;16.20;63.30;;;;;;5045648;28;20110;-63
2021/05/16 06:46:28;;;;;;;44.65;23.50;;;16.20;63.40;;;;;;5045346;28;20079;-63
2021/05/16 06:48:54;;;;;;;44.75;23.98;;;16.30;63.40;;;;;;5039278;28;20040;-64
2021/05/16 06:51:23;;;;;;;48.30;24.60;;;16.30;63.50;;;;;;5043087;28;20040;-64
2021/05/16 06:53:51;;;;;;;44.40;24.50;;;16.40;63.40;;;;;;5048573;28;20071;-64
2021/05/16 06:56:17;;;;;;;41.38;24.70;;;16.40;63.50;;;;;;5050485;28;20051;-64
2021/05/16 06:58:42;;;;;;;46.55;22.90;;;16.60;63.50;;;;;;5049470;28;20033;-64
2021/05/16 07:01:11;;;;;;;44.03;22.98;;;16.60;63.20;;;;;;5052031;28;20151;-64
2021/05/16 07:03:39;;;;;;;42.47;21.80;;;16.70;62.80;;;;;;5060666;28;20036;-63
2021/05/16 07:06:05;;;;;;;43.05;23.40;;;16.60;62.30;;;;;;5052484;28;20514;-64
2021/05/16 07:08:33;;;;;;;35.25;21.58;;;16.60;62.30;;;;;;5044427;28;20094;-63
2021/05/16 07:11:01;;;;;;;40.13;22.20;;;16.60;62.70;;;;;;5054096;28;20043;-64
2021/05/16 07:13:27;;;;;;;38.83;21.67;;;16.70;62.80;;;;;;5050213;28;20037;-64
2021/05/16 07:15:53;;;;;;;41.58;22.27;;;16.80;62.60;;;;;;5052335;28;20045;-64
2021/05/16 07:18:22;;;;;;;37.42;21.05;;;16.80;62.40;;;;;;5049037;28;20036;-64
2021/05/16 07:20:50;;;;;;;36.72;21.33;;;16.90;62.40;;;;;;5055228;28;20184;-64
2021/05/16 07:23:18;;;;;;;40.95;20.67;;;17.10;62.70;;;;;;5056132;28;20036;-64
2021/05/16 07:25:43;;;;;;;33.28;19.70;;;17.30;62.60;;;;;;5051278;28;20776;-64
2021/05/16 07:28:09;;;;;;;34.83;20.08;;;17.40;61.80;;;;;;5055578;28;20037;-64
2021/05/16 07:30:35;;;;;;;35.80;19.08;;;17.50;61.40;;;;;;5053419;28;20036;-64
2021/05/16 07:33:04;;;;;;;40.25;20.20;;;17.60;61.30;;;;;;5053838;28;20036;-64
2021/05/16 07:35:30;;;;;;;35.03;19.25;;;17.60;61.20;;;;;;5056410;28;20043;-64
2021/05/16 07:37:57;;;;;;;37.10;20.60;;;17.70;60.90;;;;;;5048567;28;20534;-64
2021/05/16 07:40:23;;;;;;;37.05;20.70;;;17.80;60.50;;;;;;5049903;28;20056;-64
2021/05/16 07:42:53;;;;;;;34.05;19.30;;;17.90;60.50;;;;;;5041141;28;20124;-65
2021/05/16 07:45:19;;;;;;;36.78;19.35;;;18.00;60.50;;;;;;5035057;28;20036;-64
2021/05/16 07:47:47;;;;;;;35.85;19.88;;;18.20;60.60;;;;;;5038922;28;20041;-64
2021/05/16 07:50:13;;;;;;;35.45;18.45;;;18.50;59.80;;;;;;5042154;28;20032;-64
2021/05/16 07:52:41;;;;;;;31.38;17.80;;;18.60;58.60;;;;;;5032774;28;20114;-64
2021/05/16 07:55:10;;;;;;;34.08;18.40;;;18.70;58.80;;;;;;5041117;28;20048;-64
2021/05/16 07:57:38;;;;;;;28.98;15.90;;;19.00;60.10;;;;;;5047777;28;20699;-64
2021/05/16 08:00:10;;;;;;;31.55;15.73;;;20.00;59.60;;;;;;5050979;28;20039;-64
2021/05/16 08:02:42;;;;;;;30.48;16.48;;;20.50;56.70;;;;;;5050811;28;20051;-64
2021/05/16 08:05:09;;;;;;;25.27;15.57;;;20.70;55.20;;;;;;5057873;28;20039;-64
2021/05/16 08:07:35;;;;;;;31.95;15.00;;;20.50;54.60;;;;;;5051417;28;20043;-64
2021/05/16 08:10:03;;;;;;;25.20;16.17;;;20.40;54.80;;;;;;5052206;28;20417;-64
2021/05/16 08:12:33;;;;;;;28.35;16.35;;;20.30;55.10;;;;;;5049789;28;20044;-64
2021/05/16 08:14:58;;;;;;;23.42;14.18;;;20.50;56.10;;;;;;5049008;28;20071;-63
2021/05/16 08:17:24;;;;;;;27.65;13.45;;;;;;;;;;5050088;28;20067;-65
2021/05/16 08:19:52;;;;;;;23.55;13.32;;;21.40;54.90;;;;;;5044194;28;20040;-64
2021/05/16 08:22:20;;;;;;;22.00;12.10;;;23.90;51.00;;;;;;5045268;28;20037;-64
2021/05/16 08:24:48;;;;;;;20.65;12.75;;;24.20;48.30;;;;;;5045300;28;20144;-64
2021/05/16 08:27:17;;;;;;;25.23;13.27;;;24.00;47.30;;;;;;5046273;28;20045;-64
2021/05/16 08:29:46;;;;;;;19.52;11.57;;;23.60;46.90;;;;;;5040426;28;20098;-64
2021/05/16 08:32:13;;;;;;;22.30;12.30;;;23.40;47.20;;;;;;5046718;28;20211;-64
2021/05/16 08:34:39;;;;;;;17.17;11.80;;;23.70;48.30;;;;;;5045289;28;22052;-64
2021/05/16 08:37:10;;;;;;;20.52;11.90;;;24.40;46.80;;;;;;5047371;28;20094;-64
2021/05/16 08:39:36;;;;;;;23.15;12.32;;;24.40;45.30;;;;;;5044241;28;20422;-64
2021/05/16 08:42:04;;;;;;;20.48;12.45;;;24.00;44.80;;;;;;5048546;28;20520;-64
2021/05/16 08:44:37;;;;;;;21.25;12.38;;;23.70;45.50;;;;;;5056184;28;20043;-64
2021/05/16 08:47:04;;;;;;;29.48;13.02;;;23.40;46.10;;;;;;5044555;28;20154;-64
2021/05/16 08:49:32;;;;;;;23.98;12.57;;;23.00;45.50;;;;;;5051458;28;20502;-64
2021/05/16 08:52:00;;;;;;;24.52;12.75;;;22.70;46.10;;;;;;5043762;28;20590;-64
2021/05/16 08:54:30;;;;;;;23.00;12.52;;;22.40;47.30;;;;;;5052878;28;20085;-64
2021/05/16 08:56:58;;;;;;;21.10;12.95;;;22.20;47.20;;;;;;5050529;28;20118;-64
2021/05/16 08:59:29;;;;;;;22.55;12.82;;;22.00;48.20;;;;;;5044453;28;20136;-63
2021/05/16 09:01:58;;;;;;;19.38;12.27;;;21.80;48.90;;;;;;5051037;28;20047;-63
2021/05/16 09:04:35;;;;;;;13.43;8.60;;;21.60;49.00;;;;;;5050960;28;20093;-63
2021/05/16 09:07:04;;;;;;;15.60;9.15;;;21.40;48.60;;;;;;5048061;28;20048;-63
2021/05/16 09:09:39;;;;;;;15.00;8.23;;;20.90;48.80;;;;;;5045041;28;20066;-65
2021/05/16 09:12:14;;;;;;;20.75;8.85;;;20.50;49.00;;;;;;5038555;28;20032;-65
2021/05/16 09:14:47;;;;;;;17.73;10.65;;;20.00;50.10;;;;;;5049411;28;20123;-66
2021/05/16 09:17:24;;;;;;;21.17;11.65;;;19.60;51.40;;;;;;5043098;28;20106;-64
2021/05/16 09:19:53;;;;;;;19.25;10.07;;;19.50;52.60;;;;;;5047276;28;21544;-65
2021/05/16 09:22:44;;;;;;;22.50;11.45;;;19.40;53.20;;;;;;5047489;28;20067;-65
2021/05/16 09:25:09;;;;;;;19.92;10.30;;;19.40;53.40;;;;;;5044450;28;20040;-65
2021/05/16 09:27:37;;;;;;;20.33;12.25;;;19.50;54.00;;;;;;5048834;28;20078;-65
2021/05/16 09:30:26;;;;;;;16.83;10.52;;;19.40;54.20;;;;;;5048973;28;20551;-65
2021/05/16 09:32:57;;;;;;;16.75;10.10;;;19.30;54.70;;;;;;5043064;28;20741;-65
2021/05/16 09:35:43;;;;;;;19.55;10.50;;;19.20;54.30;;;;;;5038891;28;20079;-64
2021/05/16 09:38:19;;;;;;;19.33;10.75;;;19.20;54.80;;;;;;5039392;28;20051;-64
2021/05/16 09:40:52;;;;;;;15.40;7.93;;;19.50;56.10;;;;;;5047415;28;20539;-65
2021/05/16 09:43:24;;;;;;;10.60;5.22;;;20.30;55.30;;;;;;5041170;28;20036;-64
2021/05/16 09:45:52;;;;;;;11.25;5.10;;;21.20;53.60;;;;;;5039766;28;20044;-64
2021/05/16 09:48:29;;;;;;;11.95;5.65;;;21.90;50.90;;;;;;5047641;28;20040;-64
2021/05/16 09:51:25;;;;;;;15.90;6.80;;;22.20;49.20;;;;;;5054899;28;20041;-64
2021/05/16 09:54:01;;;;;;;14.52;6.93;;;22.30;48.10;;;;;;5044969;28;20033;-64
2021/05/16 09:56:44;;;;;;;14.38;7.45;;;22.40;48.30;;;;;;5039950;28;20043;-65
2021/05/16 09:59:11;;;;;;;24.88;9.75;;;22.70;48.90;;;;;;5037883;28;20091;-64
2021/05/16 10:01:40;;;;;;;17.90;9.48;;;;;;;;;;5046059;28;20041;-65
2021/05/16 10:04:07;;;;;;;21.13;9.10;;;;;;;;;;5028464;28;20127;-65
2021/05/16 10:06:34;;;;;;;19.10;9.20;;;;;;;;;;5044304;28;20067;-65
2021/05/16 10:08:59;;;;;;;24.75;9.77;;;23.10;48.60;;;;;;5034726;28;20037;-65
2021/05/16 10:11:27;;;;;;;22.58;9.70;;;22.50;46.90;;;;;;5040937;28;20041;-64
2021/05/16 10:14:14;;;;;;;25.45;10.20;;;22.20;47.50;;;;;;5038228;28;20142;-64
2021/05/16 10:16:48;;;;;;;25.75;11.30;;;21.80;47.50;;;;;;5036742;28;20144;-64
2021/05/16 10:19:21;;;;;;;27.30;12.77;;;21.40;48.40;;;;;;5036713;28;20048;-65
2021/05/16 10:22:13;;;;;;;23.80;12.70;;;21.10;49.30;;;;;;5044772;28;20120;-65
2021/05/16 10:24:44;;;;;;;44.45;13.82;;;20.70;50.10;;;;;;5049195;28;20037;-65
2021/05/16 10:27:32;;;;;;;41.78;14.43;;;20.40;51.20;;;;;;5040456;28;20044;-65
2021/05/16 10:30:09;;;;;;;33.25;11.90;;;20.10;51.60;;;;;;5037345;28;20131;-67
2021/05/16 10:32:55;;;;;;;35.55;10.57;;;19.80;52.00;;;;;;5043721;28;20052;-66
2021/05/16 10:35:23;;;;;;;62.20;7.28;;;19.40;51.90;;;;;;5039100;28;20048;-66
2021/05/16 10:37:55;;;;;;;21.88;4.90;;;19.00;52.60;;;;;;5044693;28;20036;-66
2021/05/16 10:40:26;;;;;;;10.75;3.17;;;18.80;53.30;;;;;;5044126;28;20148;-66
2021/05/16 10:42:59;;;;;;;8.07;3.80;;;18.70;53.60;;;;;;5041520;28;20068;-66
2021/05/16 10:45:37;;;;;;;14.98;3.42;;;18.80;53.90;;;;;;5038569;28;20566;-66
2021/05/16 10:48:17;;;;;;;10.10;3.55;;;18.90;54.20;;;;;;5036564;28;20037;-67
2021/05/16 10:50:51;;;;;;;16.50;5.95;;;19.00;53.60;;;;;;5042960;28;20854;-66
2021/05/16 10:53:18;;;;;;;17.35;6.53;;;19.00;53.70;;;;;;5045169;28;20418;-67
2021/05/16 10:55:51;;;;;;;16.65;7.20;;;19.20;54.60;;;;;;5046857;28;20100;-66
2021/05/16 10:58:37;;;;;;;13.65;6.97;;;19.50;54.60;;;;;;5041451;28;20434;-67
2021/05/16 11:01:05;;;;;;;15.85;8.27;;;19.80;54.00;;;;;;5034555;28;20770;-66
2021/05/16 11:03:55;;;;;;;19.73;7.88;;;19.90;53.70;;;;;;5048687;28;20093;-66
2021/05/16 11:06:27;;;;;;;20.13;8.32;;;19.80;53.50;;;;;;5050383;28;20064;-66
2021/05/16 11:08:53;;;;;;;18.48;8.07;;;19.80;54.10;;;;;;5048393;28;20059;-66
2021/05/16 11:11:50;;;;;;;15.30;7.00;;;19.90;55.10;;;;;;5046607;28;20151;-65
2021/05/16 11:14:24;;;;;;;10.30;6.25;;;20.10;55.10;;;;;;5029562;28;20506;-67
2021/05/16 11:16:54;;;;;;;18.00;7.38;;;20.50;53.60;;;;;;5044933;28;20036;-67
2021/05/16 11:19:21;;;;;;;15.20;7.20;;;20.80;54.70;;;;;;5046925;28;20066;-66
2021/05/16 11:21:51;;;;;;;19.42;8.27;;;21.30;54.90;;;;;;5050174;28;20041;-66
2021/05/16 11:24:35;;;;;;;18.60;8.55;;;21.70;52.40;;;;;;5043970;28;20116;-66
2021/05/16 11:27:00;;;;;;;23.00;9.15;;;22.00;53.10;;;;;;5049171;28;20032;-66
2021/05/16 11:29:26;;;;;;;21.83;9.40;;;22.10;52.50;;;;;;5037401;28;20046;-66
2021/05/16 11:32:05;;;;;;;15.25;8.40;;;22.10;52.20;;;;;;5045167;28;20037;-66
2021/05/16 11:34:32;;;;;;;18.38;8.55;;;22.10;51.50;;;;;;5049473;28;20135;-66
2021/05/16 11:37:18;;;;;;;17.45;7.15;;;22.30;53.00;;;;;;5047014;28;20048;-66
2021/05/16 11:39:45;;;;;;;16.70;7.90;;;;;;;;;;5045200;28;20105;-66
2021/05/16 11:42:11;;;;;;;16.10;8.82;;;;;;;;;;5040334;28;20032;-66
2021/05/16 11:44:37;;;;;;;20.45;8.48;;;;;;;;;;5049338;28;20047;-65
2021/05/16 11:47:03;;;;;;;21.35;8.65;;;;;;;;;;5044152;28;20052;-64
2021/05/16 11:49:32;;;;;;;18.40;10.07;;;;;;;;;;5042741;28;20035;-65
2021/05/16 11:51:59;;;;;;;26.17;10.30;;;;;;;;;;5045260;28;20044;-65
2021/05/16 11:54:27;;;;;;;20.63;9.88;;;;;;;;;;5045951;28;20322;-65
2021/05/16 11:56:53;;;;;;;22.20;9.13;;;;;;;;;;5050751;28;20044;-65
2021/05/16 11:59:21;;;;;;;10.63;3.60;;;;;;;;;;5039135;28;20062;-66
2021/05/16 12:01:47;;;;;;;10.43;1.80;;;22.60;52.30;;;;;;5048566;28;20048;-65
2021/05/16 12:04:19;;;;;;;11.82;1.80;;;21.80;48.00;;;;;;5050346;28;20052;-65
2021/05/16 12:06:54;;;;;;;21.77;1.45;;;21.20;48.10;;;;;;5046701;28;20481;-65
2021/05/16 12:09:23;;;;;;;21.85;2.08;;;20.60;48.40;;;;;;5041887;28;20775;-65
2021/05/16 12:11:51;;;;;;;25.35;1.70;;;20.20;49.20;;;;;;5049684;28;20089;-66
2021/05/16 12:14:23;;;;;;;24.85;1.85;;;19.70;49.90;;;;;;5042940;28;20832;-66
2021/05/16 12:17:05;;;;;;;7.07;2.00;;;19.40;50.80;;;;;;5047759;28;20032;-65
2021/05/16 12:19:37;;;;;;;11.05;2.15;;;19.10;51.60;;;;;;5045211;28;20043;-65
2021/05/16 12:22:12;;;;;;;4.25;1.50;;;19.00;52.40;;;;;;5053255;28;20596;-65
2021/05/16 12:24:43;;;;;;;6.05;1.60;;;19.00;53.20;;;;;;5043449;28;20048;-66
2021/05/16 12:27:13;;;;;;;3.15;1.80;;;19.20;54.10;;;;;;5052772;28;20048;-66
2021/05/16 12:29:44;;;;;;;7.35;2.00;;;19.50;55.00;;;;;;5041498;28;20144;-66
2021/05/16 12:32:27;;;;;;;4.28;2.13;;;20.10;55.50;;;;;;5055550;28;20040;-65
2021/05/16 12:34:55;;;;;;;6.72;2.38;;;20.70;54.30;;;;;;5052551;28;20692;-66
2021/05/16 12:37:24;;;;;;;5.05;2.40;;;21.30;51.70;;;;;;5047232;28;20045;-66
2021/05/16 12:39:59;;;;;;;12.38;2.63;;;21.60;51.10;;;;;;5050503;28;20028;-66
2021/05/16 12:42:36;;;;;;;11.50;3.25;;;21.80;52.60;;;;;;5050211;28;20044;-65
2021/05/16 12:45:22;;;;;;;8.90;3.00;;;22.10;51.20;;;;;;5050029;28;20127;-66